Time;durP1;ratioP1;P1;durP2;ratioP2;P2;SDS_P1;SDS_P2;PMS_P1;PMS_P2;Temp;Humidity;BMP_temperature;BMP_pressure;BME280_temperature;BME280_humidity;BME280_pressure;Samples;Min_cycle;Max_cycle;Signal;HPM_P1;HPM_P2
2022/02/06 07:04:47;;;;;;;24.35;2.85;;;;;;;;;;4914516;29;20576;-88
2022/02/06 07:07:14;;;;;;;20.70;2.72;;;;;;;;;;4914943;29;20096;-86
2022/02/06 07:09:42;;;;;;;22.30;2.83;;;;;;;;;;4902504;29;20059;-87
2022/02/06 07:12:13;;;;;;;22.05;3.20;;;;;;;;;;4914016;29;20048;-86
2022/02/06 07:14:40;;;;;;;35.35;4.18;;;;;;;;;;4913924;29;20058;-87
2022/02/06 07:17:07;;;;;;;35.70;3.63;;;;;;;;;;4913299;29;20112;-87
2022/02/06 07:19:37;;;;;;;29.40;4.20;;;;;;;;;;4914278;29;20052;-86
2022/02/06 07:22:04;;;;;;;37.65;3.75;;;;;;;;;;4911628;29;20056;-86
2022/02/06 07:24:33;;;;;;;31.85;4.07;;;;;;;;;;4914826;29;20131;-87
2022/02/06 07:27:04;;;;;;;37.10;4.53;;;;;;;;;;4913506;29;20051;-86
2022/02/06 07:29:31;;;;;;;31.67;3.95;;;;;;;;;;4912569;29;20107;-85
2022/02/06 07:32:00;;;;;;;42.97;4.90;;;;;;;;;;4910801;29;20056;-85
2022/02/06 07:34:32;;;;;;;37.25;5.43;;;;;;;;;;4910790;29;20048;-88
2022/02/06 07:36:59;;;;;;;35.50;4.30;;;;;;;;;;4911432;29;20490;-85
2022/02/06 07:39:26;;;;;;;35.25;4.57;;;;;;;;;;4912510;29;20044;-84
2022/02/06 07:41:55;;;;;;;55.10;6.03;;;;;;;;;;4910405;29;20088;-86
2022/02/06 07:44:22;;;;;;;42.53;5.10;;;;;;;;;;4910635;29;20568;-87
2022/02/06 07:46:50;;;;;;;37.50;5.40;;;;;;;;;;4907122;29;20139;-84
2022/02/06 07:49:17;;;;;;;53.13;5.88;;;;;;;;;;4910257;29;20045;-86
2022/02/06 07:51:43;;;;;;;39.72;4.93;;;;;;;;;;4912761;29;20052;-84
2022/02/06 07:54:10;;;;;;;38.67;5.10;;;;;;;;;;4914061;29;20468;-85
2022/02/06 07:56:37;;;;;;;44.58;6.63;;;;;;;;;;4914744;29;20704;-85
2022/02/06 07:59:03;;;;;;;47.72;6.05;;;;;;;;;;4913914;29;20052;-85
2022/02/06 08:01:31;;;;;;;49.53;5.53;;;;;;;;;;4915088;29;20116;-84
2022/02/06 08:03:58;;;;;;;45.38;4.95;;;;;;;;;;4916448;29;20105;-85
2022/02/06 08:06:24;;;;;;;52.75;6.53;;;;;;;;;;4916282;29;20056;-87
2022/02/06 08:08:51;;;;;;;51.33;5.05;;;;;;;;;;4923300;29;20055;-87
2022/02/06 08:11:18;;;;;;;51.45;5.35;;;;;;;;;;4915130;29;20050;-88
2022/02/06 08:13:51;;;;;;;42.92;5.68;;;;;;;;;;4913705;29;20509;-84
2022/02/06 08:16:18;;;;;;;40.85;6.60;;;;;;;;;;4913228;29;20052;-85
2022/02/06 08:18:45;;;;;;;45.45;5.80;;;;;;;;;;4915346;29;20056;-85
2022/02/06 08:21:12;;;;;;;48.30;5.75;;;;;;;;;;4915251;29;20397;-87
2022/02/06 08:23:44;;;;;;;52.92;5.55;;;;;;;;;;4915877;29;20055;-87
2022/02/06 08:26:11;;;;;;;55.30;6.03;;;;;;;;;;4913896;29;20056;-84
2022/02/06 08:28:38;;;;;;;47.83;5.85;;;;;;;;;;4914842;29;20059;-85
2022/02/06 08:31:05;;;;;;;48.83;5.63;;;;;;;;;;4915945;29;20052;-81
2022/02/06 08:33:31;;;;;;;50.90;6.57;;;;;;;;;;4916888;29;20056;-83
2022/02/06 08:35:59;;;;;;;48.30;5.32;;;;;;;;;;4913073;29;20576;-86
2022/02/06 08:38:27;;;;;;;61.22;6.18;;;;;;;;;;4913232;29;20170;-85
2022/02/06 08:40:54;;;;;;;54.08;6.75;;;;;;;;;;4913746;29;20048;-86
2022/02/06 08:43:21;;;;;;;55.85;6.57;;;;;;;;;;4914351;29;20048;-84
2022/02/06 08:45:48;;;;;;;54.15;6.25;;;;;;;;;;4915444;29;20048;-85
2022/02/06 08:48:16;;;;;;;48.50;6.03;;;;;;;;;;4913889;29;20103;-86
2022/02/06 08:50:43;;;;;;;58.25;6.13;;;;;;;;;;4913224;29;20058;-85
2022/02/06 08:53:10;;;;;;;71.63;10.60;;;;;;;;;;4914122;29;20059;-84
2022/02/06 08:55:36;;;;;;;52.08;5.70;;;;;;;;;;4913712;29;20108;-85
2022/02/06 08:58:04;;;;;;;57.78;6.20;;;;;;;;;;4913684;29;20048;-84
2022/02/06 09:00:31;;;;;;;58.72;8.18;;;;;;;;;;4916112;29;20051;-85
2022/02/06 09:02:58;;;;;;;54.03;6.47;;;;;;;;;;4913323;29;20048;-85
2022/02/06 09:05:25;;;;;;;52.25;6.25;;;;;;;;;;4912045;29;20054;-84
2022/02/06 09:07:53;;;;;;;68.65;7.93;;;;;;;;;;4912970;29;20182;-86
2022/02/06 09:10:20;;;;;;;49.60;6.20;;;;;;;;;;4925545;29;20068;-84
2022/02/06 09:12:53;;;;;;;59.25;7.30;;;;;;;;;;4915404;29;20501;-84
2022/02/06 09:15:21;;;;;;;61.05;7.72;;;;;;;;;;4913827;29;20062;-83
2022/02/06 09:17:50;;;;;;;73.35;7.90;;;;;;;;;;4912912;29;20052;-85
2022/02/06 09:20:18;;;;;;;54.38;6.57;;;;;;;;;;4912151;29;20096;-85
2022/02/06 09:22:45;;;;;;;62.50;7.03;;;;;;;;;;4914043;29;20501;-84
2022/02/06 09:25:12;;;;;;;55.63;6.75;;;;;;;;;;4913165;29;20797;-83
2022/02/06 09:27:40;;;;;;;61.95;8.07;;;;;;;;;;4915833;29;20052;-84
2022/02/06 09:30:15;;;;;;;70.38;7.65;;;;;;;;;;4912915;29;20409;-84
2022/02/06 09:35:10;;;;;;;62.83;7.30;;;;;;;;;;4912520;29;20092;-83
2022/02/06 09:37:37;;;;;;;77.30;8.15;;;;;;;;;;4912277;29;20056;-86
2022/02/06 09:40:08;;;;;;;66.18;7.47;;;;;;;;;;4912525;29;20797;-85
2022/02/06 09:42:37;;;;;;;63.88;7.32;;;;;;;;;;4915950;29;20052;-84
2022/02/06 09:45:05;;;;;;;52.60;5.93;;;;;;;;;;4914187;29;20048;-84
2022/02/06 09:47:32;;;;;;;63.37;6.57;;;;;;;;;;4912141;29;20111;-84
2022/02/06 09:49:59;;;;;;;70.28;6.78;;;;;;;;;;4911816;29;20597;-84
2022/02/06 09:52:29;;;;;;;62.83;6.03;;;;;;;;;;4911849;29;20052;-84
2022/02/06 09:55:03;;;;;;;69.18;8.57;;;;;;;;;;4912162;29;20052;-84
2022/02/06 09:57:39;;;;;;;62.72;6.60;;;;;;;;;;4914604;29;20057;-85
2022/02/06 10:00:09;;;;;;;66.05;6.97;;;;;;;;;;4911547;29;20052;-82
2022/02/06 10:02:37;;;;;;;73.30;8.85;;;;;;;;;;4913040;29;20119;-85
2022/02/06 10:05:06;;;;;;;66.30;7.85;;;;;;;;;;4912198;29;20044;-84
2022/02/06 10:07:43;;;;;;;78.20;8.10;;;;;;;;;;4911924;29;20424;-84
2022/02/06 10:10:11;;;;;;;69.82;9.98;;;;;;;;;;4922566;29;20513;-83
2022/02/06 10:12:40;;;;;;;68.65;10.57;;;;;;;;;;4915083;29;20588;-85
2022/02/06 10:15:14;;;;;;;69.57;8.30;;;;;;;;;;4910943;29;20528;-83
2022/02/06 10:17:42;;;;;;;55.78;8.18;;;;;;;;;;4912262;29;20056;-84
2022/02/06 10:20:13;;;;;;;69.70;9.63;;;;;;;;;;4911755;29;20079;-83
2022/02/06 10:22:49;;;;;;;62.20;8.20;;;;;;;;;;4912836;29;20576;-84
2022/02/06 10:25:17;;;;;;;68.28;8.52;;;;;;;;;;4912626;29;20485;-84
2022/02/06 10:27:46;;;;;;;82.97;9.23;;;;;;;;;;4914294;29;20052;-85
2022/02/06 10:30:28;;;;;;;67.93;8.32;;;;;;;;;;4911425;29;20048;-84
2022/02/06 10:32:55;;;;;;;56.15;9.35;;;;;;;;;;4912207;29;20119;-85
2022/02/06 10:35:22;;;;;;;77.90;9.18;;;;;;;;;;4912776;29;20544;-84
2022/02/06 10:37:54;;;;;;;55.92;7.53;;;;;;;;;;4912285;29;20056;-86
2022/02/06 10:40:22;;;;;;;69.72;8.35;;;;;;;;;;4909743;29;20108;-84
2022/02/06 10:42:48;;;;;;;61.10;8.97;;;;;;;;;;4913674;29;20462;-84
2022/02/06 10:45:19;;;;;;;63.88;9.73;;;;;;;;;;4911116;29;20504;-85
2022/02/06 10:47:49;;;;;;;60.85;9.07;;;;;;;;;;4911323;29;20052;-85
2022/02/06 10:50:23;;;;;;;71.30;8.18;;;;;;;;;;4910443;29;20044;-86
2022/02/06 10:52:50;;;;;;;62.17;7.90;;;;;;;;;;4911180;29;20051;-86
2022/02/06 10:55:19;;;;;;;66.13;8.13;;;;;;;;;;4909603;29;20104;-86
2022/02/06 10:58:00;;;;;;;57.58;7.60;;;;;;;;;;4911895;29;20055;-87
2022/02/06 11:00:30;;;;;;;67.68;9.63;;;;;;;;;;4907554;29;20102;-86
2022/02/06 11:03:04;;;;;;;71.07;8.38;;;;;;;;;;4912953;29;20580;-86
2022/02/06 11:06:05;;;;;;;66.53;10.05;;;;;;;;;;4908403;29;20064;-86
2022/02/06 11:08:34;;;;;;;70.15;7.75;;;;;;;;;;4910834;29;20513;-86
2022/02/06 11:11:03;;;;;;;68.30;8.73;;;;;;;;;;4913374;29;20052;-87
2022/02/06 11:13:32;;;;;;;;;;;;;;;;;;4907288;29;20052;-86
2022/02/06 11:16:09;;;;;;;57.38;7.18;;;;;;;;;;4909250;29;19965;-86
2022/02/06 11:18:57;;;;;;;55.10;7.38;;;;;;;;;;4907571;29;20052;-86
2022/02/06 11:21:25;;;;;;;64.95;7.65;;;;;;;;;;4908486;29;20058;-86
2022/02/06 11:23:54;;;;;;;71.78;9.00;;;;;;;;;;4907812;29;20051;-85
2022/02/06 11:26:26;;;;;;;53.17;6.47;;;;;;;;;;4908501;29;20569;-86
2022/02/06 11:28:54;;;;;;;73.28;8.35;;;;;;;;;;4903865;29;20406;-87
2022/02/06 11:31:22;;;;;;;63.80;6.75;;;;;;;;;;4908621;29;20052;-86
2022/02/06 11:33:49;;;;;;;49.25;7.43;;;;;;;;;;4909430;29;20052;-85
2022/02/06 11:43:00;;;;;;;60.65;7.90;;;;;;;;;;4910679;29;20052;-87
2022/02/06 11:45:06;;;;;;;71.47;8.18;;;;;;;;;;4907673;29;20044;-85
2022/02/06 11:47:49;;;;;;;62.13;8.18;;;;;;;;;;4908639;29;20120;-87
2022/02/06 11:50:17;;;;;;;66.32;7.53;;;;;;;;;;4911754;28;20043;-86
2022/02/06 11:52:47;;;;;;;62.90;8.80;;;;;;;;;;4907049;29;20104;-87
2022/02/06 11:55:37;;;;;;;66.10;8.13;;;;;;;;;;4908599;29;20040;-87
2022/02/06 11:58:28;;;;;;;61.55;7.97;;;;;;;;;;4908654;29;20497;-88
2022/02/06 12:01:07;;;;;;;58.60;7.20;;;;;;;;;;4907758;29;20083;-86
2022/02/06 12:03:57;;;;;;;70.28;9.18;;;;;;;;;;4908229;29;20052;-87
2022/02/06 12:06:26;;;;;;;57.88;8.50;;;;;;;;;;4908388;29;20051;-86
2022/02/06 12:08:58;;;;;;;63.00;7.68;;;;;;;;;;4910378;29;20119;-87
2022/02/06 12:11:31;;;;;;;61.03;9.60;;;;;;;;;;4908633;29;20052;-87
2022/02/06 12:14:29;;;;;;;59.97;7.85;;;;;;;;;;4913268;29;20485;-88
2022/02/06 12:17:17;;;;;;;61.90;7.47;;;;;;;;;;4905729;29;20112;-87
2022/02/06 12:20:10;;;;;;;59.80;8.38;;;;;;;;;;4899648;29;20048;-85
2022/02/06 12:22:39;;;;;;;64.20;8.65;;;;;;;;;;4910479;29;20161;-87
2022/02/06 12:25:34;;;;;;;61.33;8.63;;;;;;;;;;4913267;29;20104;-86
2022/02/06 12:28:21;;;;;;;67.80;8.15;;;;;;;;;;4914410;29;20104;-88
2022/02/06 12:30:54;;;;;;;59.35;6.47;;;;;;;;;;4911981;29;20095;-88
2022/02/06 12:33:29;;;;;;;61.92;7.50;;;;;;;;;;4913228;29;20052;-89
2022/02/06 12:38:44;;;;;;;73.95;10.77;;;;;;;;;;4910755;29;20045;-87
2022/02/06 12:41:25;;;;;;;72.25;9.13;;;;;;;;;;4904688;29;20045;-87
2022/02/06 12:44:02;;;;;;;71.13;8.88;;;;;;;;;;4904191;29;20148;-88
2022/02/06 12:46:29;;;;;;;62.03;9.60;;;;;;;;;;4911859;29;20123;-88
2022/02/06 12:49:01;;;;;;;64.75;8.93;;;;;;;;;;4915473;29;20060;-88
2022/02/06 12:51:29;;;;;;;70.30;9.43;;;;;;;;;;4916047;29;20048;-88
2022/02/06 12:54:10;;;;;;;72.53;9.32;;;;;;;;;;4913297;29;20316;-88
2022/02/06 12:56:41;;;;;;;71.18;8.07;;;;;;;;;;4915272;29;20077;-87
2022/02/06 12:59:10;;;;;;;65.07;8.43;;;;;;;;;;4914771;29;20048;-88
2022/02/06 13:01:43;;;;;;;68.07;9.25;;;;;;;;;;4915929;29;20116;-88
2022/02/06 13:04:12;;;;;;;70.53;9.02;;;;;;;;;;4913151;29;20052;-87
2022/02/06 13:06:52;;;;;;;71.55;9.35;;;;;;;;;;4898057;29;20589;-89
2022/02/06 13:09:27;;;;;;;63.17;8.23;;;;;;;;;;4925613;29;20055;-91
2022/02/06 13:12:08;;;;;;;76.10;9.38;;;;;;;;;;4922376;29;20092;-89
2022/02/06 13:22:56;;;;;;;71.72;10.65;;;;;;;;;;4914023;29;20473;-89
2022/02/06 13:33:39;;;;;;;56.15;9.10;;;;;;;;;;4914601;29;20060;-87
2022/02/06 13:36:57;;;;;;;73.28;9.32;;;;;;;;;;4914905;29;20048;-87
2022/02/06 13:38:59;;;;;;;70.68;9.35;;;;;;;;;;4908003;29;20104;-87
2022/02/06 13:41:31;;;;;;;57.25;8.23;;;;;;;;;;4913595;29;20048;-87
2022/02/06 13:44:16;;;;;;;67.53;8.88;;;;;;;;;;4906178;29;20053;-88
2022/02/06 13:46:45;;;;;;;61.10;7.65;;;;;;;;;;4903498;29;20056;-88
2022/02/06 13:49:12;;;;;;;51.63;6.55;;;;;;;;;;4914009;29;20056;-88
2022/02/06 13:51:47;;;;;;;69.60;9.00;;;;;;;;;;4916384;29;20463;-89
2022/02/06 13:54:15;;;;;;;51.00;7.82;;;;;;;;;;4914488;29;20524;-88
2022/02/06 13:56:45;;;;;;;66.10;7.80;;;;;;;;;;4913892;29;20052;-87
2022/02/06 13:59:18;;;;;;;53.47;8.07;;;;;;;;;;4908160;29;20044;-89
2022/02/06 14:01:51;;;;;;;70.90;8.77;;;;;;;;;;4913925;29;20187;-87
2022/02/06 14:04:21;;;;;;;49.53;7.10;;;;;;;;;;4911981;29;20111;-88
2022/02/06 14:06:55;;;;;;;54.67;7.18;;;;;;;;;;4915647;29;20056;-88
2022/02/06 14:09:30;;;;;;;66.43;7.20;;;;;;;;;;4909845;29;20052;-89
2022/02/06 14:11:57;;;;;;;51.92;6.38;;;;;;;;;;4915741;29;20107;-93
2022/02/06 14:14:25;;;;;;;61.53;7.37;;;;;;;;;;4909729;29;20493;-90
2022/02/06 14:17:10;;;;;;;43.58;5.68;;;;;;;;;;4919252;29;20488;-87
2022/02/06 14:19:44;;;;;;;48.33;5.60;;;;;;;;;;4916147;29;20048;-89
2022/02/06 14:22:35;;;;;;;45.30;7.28;;;;;;;;;;4917606;29;20048;-89
2022/02/06 14:25:08;;;;;;;55.47;8.35;;;;;;;;;;4914182;29;20470;-89
2022/02/06 14:27:38;;;;;;;54.72;6.43;;;;;;;;;;4898388;29;20049;-87
2022/02/06 14:30:09;;;;;;;51.50;6.57;;;;;;;;;;4913162;29;20103;-89
2022/02/06 14:32:55;;;;;;;45.50;6.32;;;;;;;;;;4913491;29;20062;-89
2022/02/06 14:35:24;;;;;;;47.70;6.78;;;;;;;;;;4911757;29;20079;-89
2022/02/06 14:37:54;;;;;;;56.53;6.78;;;;;;;;;;4916903;29;21094;-89
2022/02/06 14:43:14;;;;;;;56.13;6.75;;;;;;;;;;4914510;29;20497;-89
2022/02/06 14:45:49;;;;;;;59.55;6.65;;;;;;;;;;4912073;29;20048;-90
2022/02/06 14:48:20;;;;;;;49.17;5.97;;;;;;;;;;4907876;29;20056;-89
2022/02/06 14:50:49;;;;;;;58.95;8.57;;;;;;;;;;4913654;29;20080;-91
2022/02/06 14:53:18;;;;;;;62.17;8.52;;;;;;;;;;4903594;29;20072;-90
2022/02/06 14:55:46;;;;;;;69.88;8.80;;;;;;;;;;4904344;29;20052;-91
2022/02/06 14:58:13;;;;;;;58.60;8.32;;;;;;;;;;4914380;29;20520;-91
2022/02/06 15:00:40;;;;;;;69.53;9.45;;;;;;;;;;4916394;29;20060;-91
2022/02/06 15:03:11;;;;;;;;;;;;;;;;;;4912258;29;20530;-89
2022/02/06 15:05:38;;;;;;;43.63;6.63;;;;;;;;;;4915617;29;19923;-90
2022/02/06 15:08:06;;;;;;;53.30;7.38;;;;;;;;;;4914168;29;20104;-89
2022/02/06 15:10:35;;;;;;;57.53;7.05;;;;;;;;;;4914989;29;20052;-90
2022/02/06 15:13:09;;;;;;;48.38;5.90;;;;;;;;;;4913609;29;20064;-91
2022/02/06 15:15:47;;;;;;;56.55;6.43;;;;;;;;;;4910301;29;20103;-88
2022/02/06 15:20:55;;;;;;;57.85;6.68;;;;;;;;;;4915213;29;20048;-89
2022/02/06 15:23:24;;;;;;;54.60;7.30;;;;;;;;;;4913618;29;20040;-90
2022/02/06 15:25:51;;;;;;;56.95;7.20;;;;;;;;;;4906673;29;20534;-89
2022/02/06 15:28:18;;;;;;;69.22;6.45;;;;;;;;;;4911770;29;20085;-89
2022/02/06 15:30:45;;;;;;;51.22;6.93;;;;;;;;;;4914008;29;20060;-89
2022/02/06 15:33:12;;;;;;;65.20;9.25;;;;;;;;;;4912568;29;20111;-86
2022/02/06 15:35:40;;;;;;;68.63;7.30;;;;;;;;;;4906214;29;20576;-88
2022/02/06 15:38:08;;;;;;;68.95;8.63;;;;;;;;;;4912528;29;20044;-86
2022/02/06 15:40:40;;;;;;;64.80;9.00;;;;;;;;;;4911285;29;20512;-88
2022/02/06 15:43:08;;;;;;;67.43;7.72;;;;;;;;;;4911933;29;20108;-89
2022/02/06 15:45:36;;;;;;;71.88;8.77;;;;;;;;;;4910492;29;20116;-90
2022/02/06 15:48:03;;;;;;;70.43;8.07;;;;;;;;;;4913817;29;20104;-89
2022/02/06 15:50:30;;;;;;;73.97;8.40;;;;;;;;;;4912571;29;20060;-88
2022/02/06 15:52:56;;;;;;;80.25;9.73;;;;;;;;;;4911871;29;20097;-90
2022/02/06 15:55:23;;;;;;;86.03;8.82;;;;;;;;;;4913197;29;20052;-90
2022/02/06 15:57:50;;;;;;;73.97;8.82;;;;;;;;;;4912179;29;20049;-89
2022/02/06 16:00:17;;;;;;;68.90;10.30;;;;;;;;;;4910322;29;20056;-88
2022/02/06 16:02:43;;;;;;;74.95;8.45;;;;;;;;;;4913314;29;20103;-88
2022/02/06 16:05:13;;;;;;;79.63;9.07;;;;;;;;;;4909627;29;20112;-87
2022/02/06 16:07:45;;;;;;;75.55;7.05;;;;;;;;;;4896354;29;20052;-90
2022/02/06 16:10:12;;;;;;;65.40;7.93;;;;;;;;;;4926298;29;20458;-90
2022/02/06 16:12:39;;;;;;;72.35;8.13;;;;;;;;;;4913416;29;20083;-88
2022/02/06 16:15:07;;;;;;;72.88;8.93;;;;;;;;;;4913209;29;20076;-87
2022/02/06 16:17:34;;;;;;;63.25;11.57;;;;;;;;;;4917101;29;20531;-90
2022/02/06 16:20:06;;;;;;;48.90;7.13;;;;;;;;;;4915514;29;20524;-86
2022/02/06 16:22:34;;;;;;;59.13;6.93;;;;;;;;;;4916459;29;20056;-89
2022/02/06 16:25:01;;;;;;;66.78;7.45;;;;;;;;;;4916366;29;20060;-89
2022/02/06 16:27:31;;;;;;;73.22;7.78;;;;;;;;;;4917328;29;20471;-89
2022/02/06 16:29:59;;;;;;;55.65;7.85;;;;;;;;;;4917846;29;20052;-89
2022/02/06 16:32:27;;;;;;;58.20;7.47;;;;;;;;;;4925302;29;20474;-90
2022/02/06 16:34:54;;;;;;;66.78;9.95;;;;;;;;;;4913189;29;20059;-89
2022/02/06 16:37:21;;;;;;;59.83;7.70;;;;;;;;;;4918752;29;20047;-88
2022/02/06 16:39:48;;;;;;;51.15;8.27;;;;;;;;;;4920628;29;20048;-90
2022/02/06 16:42:19;;;;;;;60.90;7.43;;;;;;;;;;4917982;29;20123;-89
2022/02/06 16:44:46;;;;;;;62.92;6.82;;;;;;;;;;4916282;29;20048;-88
2022/02/06 16:47:14;;;;;;;52.50;7.60;;;;;;;;;;4914089;29;20103;-90
2022/02/06 16:49:41;;;;;;;61.20;6.90;;;;;;;;;;4913848;29;20545;-89
2022/02/06 16:52:09;;;;;;;55.17;6.78;;;;;;;;;;4898703;29;20562;-87
2022/02/06 16:54:36;;;;;;;51.90;6.10;;;;;;;;;;4912742;29;20047;-90
2022/02/06 16:57:03;;;;;;;50.35;5.30;;;;;;;;;;4913540;29;20509;-89
2022/02/06 16:59:30;;;;;;;41.67;5.20;;;;;;;;;;4911664;29;20524;-89
2022/02/06 17:01:57;;;;;;;24.05;3.67;;;;;;;;;;4911408;29;20048;-88
2022/02/06 17:04:27;;;;;;;37.22;4.43;;;;;;;;;;4913561;29;20497;-88
2022/02/06 17:06:58;;;;;;;33.55;4.07;;;;;;;;;;4906470;29;20048;-88
2022/02/06 17:09:25;;;;;;;40.53;5.10;;;;;;;;;;4918595;29;20044;-87
2022/02/06 17:11:53;;;;;;;40.95;4.97;;;;;;;;;;4912256;29;20495;-87
2022/02/06 17:14:20;;;;;;;41.07;6.20;;;;;;;;;;4906090;29;20057;-89
2022/02/06 17:16:47;;;;;;;36.42;4.82;;;;;;;;;;4896965;29;20429;-89
2022/02/06 17:19:16;;;;;;;35.05;4.50;;;;;;;;;;4913152;29;20040;-88
2022/02/06 17:21:45;;;;;;;42.08;5.25;;;;;;;;;;4911200;29;20550;-87
2022/02/06 17:24:13;;;;;;;42.95;5.90;;;;;;;;;;4914584;29;20048;-88
2022/02/06 17:26:40;;;;;;;36.53;5.28;;;;;;;;;;4914676;29;20053;-88
2022/02/06 17:29:07;;;;;;;45.15;5.63;;;;;;;;;;4912081;29;20075;-88
2022/02/06 17:31:34;;;;;;;54.80;6.30;;;;;;;;;;4913984;29;20111;-87
2022/02/06 17:34:00;;;;;;;44.92;6.32;;;;;;;;;;4909648;29;20060;-87
2022/02/06 17:36:27;;;;;;;56.10;6.05;;;;;;;;;;4909871;29;20048;-87
2022/02/06 17:38:54;;;;;;;51.47;6.00;;;;;;;;;;4911927;29;20056;-87
2022/02/06 17:41:21;;;;;;;43.50;5.82;;;;;;;;;;4920429;29;20106;-87
2022/02/06 17:43:48;;;;;;;54.33;6.50;;;;;;;;;;4915422;29;20048;-88
2022/02/06 17:46:15;;;;;;;58.60;6.45;;;;;;;;;;4911483;29;20056;-88
2022/02/06 17:48:42;;;;;;;49.88;7.07;;;;;;;;;;4916690;28;20588;-88
2022/02/06 17:51:10;;;;;;;60.47;7.70;;;;;;;;;;4910635;29;20052;-90
2022/02/06 17:53:36;;;;;;;54.50;8.40;;;;;;;;;;4914878;29;20107;-87
2022/02/06 17:56:05;;;;;;;57.30;6.65;;;;;;;;;;4913324;29;20123;-87
2022/02/06 17:58:32;;;;;;;49.47;7.28;;;;;;;;;;4912443;29;20055;-89
2022/02/06 18:00:59;;;;;;;46.25;5.57;;;;;;;;;;4917398;28;20068;-87
2022/02/06 18:03:26;;;;;;;58.55;6.93;;;;;;;;;;4912478;29;20094;-87
2022/02/06 18:05:53;;;;;;;50.50;7.78;;;;;;;;;;4917421;28;20052;-88
2022/02/06 18:08:20;;;;;;;51.30;7.43;;;;;;;;;;4917295;29;20103;-88
2022/02/06 18:10:47;;;;;;;47.67;6.22;;;;;;;;;;4912575;29;20060;-90
2022/02/06 18:13:15;;;;;;;41.55;5.85;;;;;;;;;;4913041;29;20059;-89
2022/02/06 18:15:41;;;;;;;69.45;10.25;;;;;;;;;;4916538;28;20083;-88
2022/02/06 18:18:08;;;;;;;50.10;6.97;;;;;;;;;;4920102;29;20052;-89
2022/02/06 18:20:35;;;;;;;54.15;7.53;;;;;;;;;;4911170;29;20072;-88
2022/02/06 18:23:02;;;;;;;63.72;8.15;;;;;;;;;;4914300;29;20054;-90
2022/02/06 18:25:29;;;;;;;58.90;7.97;;;;;;;;;;4914220;29;20040;-88
2022/02/06 18:27:59;;;;;;;55.63;7.30;;;;;;;;;;4912851;29;20202;-89
2022/02/06 18:30:27;;;;;;;46.22;7.75;;;;;;;;;;4914753;29;20072;-88
2022/02/06 18:32:54;;;;;;;57.65;7.15;;;;;;;;;;4913678;29;20056;-88
2022/02/06 18:35:22;;;;;;;49.08;7.15;;;;;;;;;;4917356;29;20051;-88
2022/02/06 18:37:48;;;;;;;51.22;7.60;;;;;;;;;;4918491;29;20107;-87
2022/02/06 18:40:16;;;;;;;62.60;11.02;;;;;;;;;;4911269;29;20052;-89
2022/02/06 18:42:44;;;;;;;50.28;7.80;;;;;;;;;;4914334;29;20485;-90
2022/02/06 18:45:15;;;;;;;43.83;7.00;;;;;;;;;;4912637;29;20047;-90
2022/02/06 18:47:42;;;;;;;51.38;8.68;;;;;;;;;;4911154;29;20086;-89
2022/02/06 18:50:10;;;;;;;66.88;8.85;;;;;;;;;;4914676;28;20066;-89
2022/02/06 18:52:37;;;;;;;57.03;8.13;;;;;;;;;;4914326;29;20062;-90
2022/02/06 18:55:07;;;;;;;77.70;12.73;;;;;;;;;;4911911;29;20081;-89
2022/02/06 18:57:34;;;;;;;59.15;9.27;;;;;;;;;;4910901;29;20285;-88
2022/02/06 19:00:03;;;;;;;66.30;12.05;;;;;;;;;;4907196;29;20107;-88
2022/02/06 19:02:30;;;;;;;65.32;8.85;;;;;;;;;;4910628;29;20052;-89
2022/02/06 19:04:56;;;;;;;55.17;8.02;;;;;;;;;;4909140;29;20111;-89
2022/02/06 19:07:25;;;;;;;67.78;10.38;;;;;;;;;;4911588;29;20133;-89
2022/02/06 19:09:56;;;;;;;74.35;8.45;;;;;;;;;;4924166;29;20048;-89
2022/02/06 19:12:22;;;;;;;64.03;9.10;;;;;;;;;;4911935;29;20075;-92
2022/02/06 19:14:49;;;;;;;63.90;8.85;;;;;;;;;;4911550;29;20052;-89
2022/02/06 19:17:16;;;;;;;73.47;9.23;;;;;;;;;;4912552;29;20111;-89
2022/02/06 19:19:43;;;;;;;66.75;8.35;;;;;;;;;;4910427;29;20083;-89
2022/02/06 19:22:10;;;;;;;73.82;9.15;;;;;;;;;;4908879;29;20103;-89
2022/02/06 19:24:37;;;;;;;57.25;8.77;;;;;;;;;;4912084;29;20136;-89
2022/02/06 19:27:04;;;;;;;80.28;10.27;;;;;;;;;;4919991;28;20055;-89
2022/02/06 19:29:31;;;;;;;60.85;9.13;;;;;;;;;;4910590;28;20147;-89
2022/02/06 19:31:58;;;;;;;86.63;10.05;;;;;;;;;;4910383;29;20048;-89
2022/02/06 19:34:34;;;;;;;80.45;10.57;;;;;;;;;;4909961;29;20052;-88
2022/02/06 19:37:01;;;;;;;72.38;8.70;;;;;;;;;;4913972;29;20083;-89
2022/02/06 19:39:28;;;;;;;83.88;11.23;;;;;;;;;;4905636;29;20051;-89
2022/02/06 19:41:55;;;;;;;72.07;8.73;;;;;;;;;;4910193;29;20083;-89
2022/02/06 19:44:25;;;;;;;64.83;8.40;;;;;;;;;;4910524;29;20040;-88
2022/02/06 19:46:53;;;;;;;75.75;10.77;;;;;;;;;;4904828;29;20284;-89
2022/02/06 19:49:19;;;;;;;70.30;9.52;;;;;;;;;;4906579;29;20116;-88
2022/02/06 19:51:47;;;;;;;71.88;9.30;;;;;;;;;;4912117;29;20048;-90
2022/02/06 19:54:14;;;;;;;79.32;9.35;;;;;;;;;;4919502;29;20119;-89
2022/02/06 19:56:41;;;;;;;76.90;10.00;;;;;;;;;;4915522;29;20048;-90
2022/02/06 19:59:09;;;;;;;69.97;10.07;;;;;;;;;;4917074;28;20075;-89
2022/02/06 20:01:37;;;;;;;83.45;9.65;;;;;;;;;;4913747;29;20052;-90
2022/02/06 20:04:04;;;;;;;76.05;10.02;;;;;;;;;;4918195;29;20525;-91
2022/02/06 20:06:31;;;;;;;82.53;9.77;;;;;;;;;;4919744;29;20060;-90
2022/02/06 20:09:01;;;;;;;76.45;9.32;;;;;;;;;;4924089;29;20055;-90
2022/02/06 20:11:29;;;;;;;75.20;9.05;;;;;;;;;;4912950;29;20132;-90
2022/02/06 20:13:56;;;;;;;75.22;9.10;;;;;;;;;;4913620;29;20052;-88
2022/02/06 20:16:23;;;;;;;72.13;9.07;;;;;;;;;;4907287;29;20428;-89
2022/02/06 20:18:53;;;;;;;80.63;10.68;;;;;;;;;;4918748;28;20067;-89
2022/02/06 20:21:27;;;;;;;83.57;10.93;;;;;;;;;;4913471;29;20048;-89
2022/02/06 20:23:55;;;;;;;77.10;10.98;;;;;;;;;;4912220;29;20067;-90
2022/02/06 20:26:23;;;;;;;85.43;10.88;;;;;;;;;;4915546;29;20054;-90
2022/02/06 20:28:50;;;;;;;80.82;11.13;;;;;;;;;;4920304;29;20054;-90
2022/02/06 20:31:17;;;;;;;100.13;9.77;;;;;;;;;;4926828;29;20127;-89
2022/02/06 20:33:44;;;;;;;82.35;11.05;;;;;;;;;;4919928;28;20056;-90
2022/02/06 20:36:11;;;;;;;78.60;10.35;;;;;;;;;;4918333;29;20044;-87
2022/02/06 20:38:38;;;;;;;72.45;10.13;;;;;;;;;;4913657;29;20098;-86
2022/02/06 20:41:16;;;;;;;84.35;11.40;;;;;;;;;;4914325;29;20044;-87
2022/02/06 20:43:43;;;;;;;78.25;10.35;;;;;;;;;;4915447;29;20433;-87
2022/02/06 20:46:12;;;;;;;75.88;9.10;;;;;;;;;;4912188;29;20096;-87
2022/02/06 20:48:41;;;;;;;69.95;9.27;;;;;;;;;;4911770;29;20067;-87
2022/02/06 20:51:09;;;;;;;69.63;9.90;;;;;;;;;;4919826;29;20132;-88
2022/02/06 20:53:42;;;;;;;81.60;11.27;;;;;;;;;;4911855;29;20059;-89
2022/02/06 20:56:14;;;;;;;79.60;9.98;;;;;;;;;;4914507;29;20139;-90
2022/02/06 20:58:42;;;;;;;75.15;10.32;;;;;;;;;;4917252;29;20055;-91
2022/02/06 21:01:10;;;;;;;75.55;9.98;;;;;;;;;;4912601;29;20060;-90
2022/02/06 21:03:43;;;;;;;64.00;8.52;;;;;;;;;;4914734;29;20055;-90
2022/02/06 21:06:11;;;;;;;74.80;9.63;;;;;;;;;;4915673;29;20056;-90
2022/02/06 21:08:40;;;;;;;67.13;9.52;;;;;;;;;;4904128;29;20059;-90
2022/02/06 21:11:08;;;;;;;83.43;9.85;;;;;;;;;;4908364;29;20059;-90
2022/02/06 21:13:34;;;;;;;67.13;9.10;;;;;;;;;;4916429;29;20108;-89
2022/02/06 21:16:02;;;;;;;61.67;8.90;;;;;;;;;;4914089;29;20098;-88
2022/02/06 21:18:32;;;;;;;69.07;9.18;;;;;;;;;;4916748;29;20119;-88
2022/02/06 21:21:00;;;;;;;68.32;9.63;;;;;;;;;;4913036;29;20059;-89
2022/02/06 21:23:28;;;;;;;72.43;8.82;;;;;;;;;;4914567;29;20043;-88
2022/02/06 21:25:55;;;;;;;72.30;9.18;;;;;;;;;;4910225;29;20049;-88
2022/02/06 21:28:22;;;;;;;62.13;9.00;;;;;;;;;;4912657;29;20471;-87
2022/02/06 21:30:49;;;;;;;64.05;8.20;;;;;;;;;;4916198;29;20047;-90
2022/02/06 21:33:17;;;;;;;66.95;8.82;;;;;;;;;;4914989;29;20052;-88
2022/02/06 21:35:44;;;;;;;70.60;9.52;;;;;;;;;;4915312;29;20111;-88
2022/02/06 21:38:12;;;;;;;67.45;8.40;;;;;;;;;;4915188;29;20040;-89
2022/02/06 21:40:40;;;;;;;72.38;8.73;;;;;;;;;;4908669;29;20053;-88
2022/02/06 21:43:10;;;;;;;77.03;8.57;;;;;;;;;;4916129;29;20417;-90
2022/02/06 21:45:39;;;;;;;77.80;10.32;;;;;;;;;;4917316;29;20052;-90
2022/02/06 21:48:07;;;;;;;71.47;9.75;;;;;;;;;;4918634;29;20107;-91
2022/02/06 21:50:34;;;;;;;72.15;9.27;;;;;;;;;;4902825;29;20057;-90
2022/02/06 21:53:01;;;;;;;62.17;8.88;;;;;;;;;;4905590;29;20071;-90
2022/02/06 21:55:28;;;;;;;69.95;9.73;;;;;;;;;;4914595;29;20052;-91
2022/02/06 21:57:54;;;;;;;64.00;8.05;;;;;;;;;;4916067;29;20060;-90
2022/02/06 22:00:21;;;;;;;66.07;9.00;;;;;;;;;;4896922;29;20049;-90
2022/02/06 22:02:50;;;;;;;66.97;8.90;;;;;;;;;;4910766;29;20056;-90
2022/02/06 22:08:00;;;;;;;74.82;8.88;;;;;;;;;;4916047;29;20497;-91
2022/02/06 22:24:05;;;;;;;80.95;9.85;;;;;;;;;;4899276;29;20577;-90
2022/02/06 22:29:28;;;;;;;70.18;8.65;;;;;;;;;;4913493;29;20048;-90
2022/02/06 22:31:56;;;;;;;52.88;7.55;;;;;;;;;;4916662;29;20052;-90
2022/02/06 22:34:23;;;;;;;69.03;9.50;;;;;;;;;;4913870;29;20048;-88
2022/02/06 22:36:50;;;;;;;63.30;8.10;;;;;;;;;;4915732;29;20072;-91
2022/02/06 22:39:17;;;;;;;73.25;9.23;;;;;;;;;;4913361;29;20099;-92